createdAt,value
2019-04-11T00:00:11.054Z,100311.44
2019-04-11T00:02:42.833Z,100304.09
2019-04-11T00:05:14.766Z,100312.09
2019-04-11T00:07:46.748Z,100320.83
2019-04-11T00:10:18.764Z,100319.30
2019-04-11T00:12:50.587Z,100325.84
2019-04-11T00:15:23.015Z,100333.39
2019-04-11T00:17:54.494Z,100337.91
2019-04-11T00:20:28.330Z,100339.75
2019-04-11T00:22:59.967Z,100347.95
2019-04-11T00:25:31.835Z,100350.62
2019-04-11T00:28:04.019Z,100359.67
2019-04-11T00:30:36.688Z,100365.41
2019-04-11T00:33:08.272Z,100366.03
2019-04-11T00:35:44.028Z,100367.41
2019-04-11T00:38:16.027Z,100361.00
2019-04-11T00:40:47.715Z,100360.00
2019-04-11T00:43:30.500Z,100364.38
2019-04-11T00:45:52.272Z,100360.34
2019-04-11T00:48:23.904Z,100354.80
2019-04-11T00:50:55.972Z,100344.91
2019-04-11T00:53:27.787Z,100347.62
2019-04-11T00:55:59.885Z,100343.27
2019-04-11T00:58:31.909Z,100340.08
2019-04-11T01:01:03.905Z,100344.92
2019-04-11T01:03:35.990Z,100346.11
2019-04-11T01:06:07.513Z,100345.95
2019-04-11T01:08:39.940Z,100353.00
2019-04-11T01:11:11.991Z,100353.84
2019-04-11T01:13:49.086Z,100361.77
2019-04-11T01:16:24.224Z,100360.92
2019-04-11T01:18:55.710Z,100362.58
2019-04-11T01:21:28.473Z,100353.72
2019-04-11T01:23:59.968Z,100349.02
2019-04-11T01:26:32.919Z,100343.34
2019-04-11T01:29:07.088Z,100338.32
2019-04-11T01:31:39.897Z,100346.39
2019-04-11T01:34:12.624Z,100342.20
2019-04-11T01:36:45.087Z,100346.22
2019-04-11T01:39:37.081Z,100341.20
2019-04-11T01:42:09.141Z,100335.53
2019-04-11T01:44:41.040Z,100331.16
2019-04-11T01:47:15.007Z,100330.32
2019-04-11T01:49:46.743Z,100324.64
2019-04-11T01:52:18.259Z,100321.30
2019-04-11T01:54:51.881Z,100332.20
2019-04-11T01:57:23.614Z,100325.00
2019-04-11T01:59:55.668Z,100323.16
2019-04-11T02:02:32.697Z,100324.81
2019-04-11T02:05:08.364Z,100321.98
2019-04-11T02:07:39.743Z,100328.99
2019-04-11T02:10:12.678Z,100335.04
2019-04-11T02:12:44.159Z,100334.69
2019-04-11T02:15:16.493Z,100338.73
2019-04-11T02:17:48.801Z,100350.09
2019-04-11T02:20:20.870Z,100351.77
2019-04-11T02:23:06.768Z,100356.97
2019-04-11T02:25:52.843Z,100364.82
2019-04-11T02:28:24.455Z,100369.53
2019-04-11T02:30:57.011Z,100373.55
2019-04-11T02:33:28.629Z,100378.22
2019-04-11T02:36:00.948Z,100375.20
2019-04-11T02:38:34.789Z,100373.86
2019-04-11T02:41:08.584Z,100374.54
2019-04-11T02:43:42.073Z,100376.21
2019-04-11T02:46:25.905Z,100364.48
2019-04-11T02:48:46.404Z,100371.37
2019-04-11T02:51:18.338Z,100366.49
2019-04-11T02:53:51.831Z,100380.55
2019-04-11T02:56:23.821Z,100377.22
2019-04-11T02:58:57.879Z,100378.41
2019-04-11T03:01:29.372Z,100374.39
2019-04-11T03:04:02.007Z,100376.22
2019-04-11T03:06:35.477Z,100371.85
2019-04-11T03:09:07.832Z,100381.23
2019-04-11T03:11:40.897Z,100375.20
2019-04-11T03:14:14.170Z,100386.61
2019-04-11T03:16:56.385Z,100387.78
2019-04-11T03:19:35.684Z,100397.14
2019-04-11T03:21:54.296Z,100395.63
2019-04-11T03:24:27.133Z,100393.13
2019-04-11T03:27:04.079Z,100403.34
2019-04-11T03:29:35.400Z,100407.68
2019-04-11T03:37:38.000Z,100400.00
2019-04-11T03:40:06.043Z,100421.09
2019-04-11T03:42:40.022Z,100420.75
2019-04-11T03:45:15.063Z,100430.13
2019-04-11T03:47:41.282Z,100423.92
2019-04-11T03:50:10.659Z,100416.73
2019-04-11T03:52:38.924Z,100418.41
2019-04-11T03:55:13.014Z,100416.72
2019-04-11T03:57:44.437Z,100416.73
2019-04-11T04:00:17.175Z,100426.09
2019-04-11T04:02:49.535Z,100420.41
2019-04-11T04:05:21.691Z,100413.21
2019-04-11T04:07:55.206Z,100405.84
2019-04-11T04:10:27.810Z,100406.00
2019-04-11T04:13:00.790Z,100409.02
2019-04-11T04:15:49.864Z,100419.42
2019-04-11T04:18:21.396Z,100415.73
2019-04-11T04:21:06.086Z,100405.87
2019-04-11T04:23:40.923Z,100409.89
2019-04-11T04:26:14.615Z,100417.08
2019-04-11T04:28:47.615Z,100410.03
2019-04-11T04:31:20.609Z,100410.89
2019-04-11T04:33:53.578Z,100407.67
2019-04-11T04:36:27.302Z,100401.97
2019-04-11T04:39:08.584Z,100400.97
2019-04-11T04:41:51.857Z,100405.00
2019-04-11T04:44:19.111Z,100412.89
2019-04-11T04:47:01.144Z,100413.06
2019-04-11T04:49:25.527Z,100419.58
2019-04-11T04:51:59.445Z,100422.59
2019-04-11T04:54:33.041Z,100419.42
2019-04-11T04:57:05.030Z,100425.94
2019-04-11T04:59:38.407Z,100416.72
2019-04-11T05:02:10.964Z,100424.60
2019-04-11T05:04:43.798Z,100425.27
2019-04-11T05:07:15.398Z,100423.44
2019-04-11T05:09:50.140Z,100423.45
2019-04-11T05:12:23.153Z,100426.30
2019-04-11T05:14:56.071Z,100428.80
2019-04-11T05:17:28.891Z,100435.34
2019-04-11T05:20:03.019Z,100438.16
2019-04-11T05:22:35.235Z,100439.00
2019-04-11T05:25:07.064Z,100439.35
2019-04-11T05:27:39.841Z,100446.87
2019-04-11T05:30:16.729Z,100440.14
2019-04-11T05:32:49.343Z,100446.86
2019-04-11T05:35:22.794Z,100448.52
2019-04-11T05:37:55.747Z,100452.17
2019-04-11T05:40:28.127Z,100465.86
2019-04-11T05:43:01.826Z,100469.53
2019-04-11T05:45:33.830Z,100472.38
2019-04-11T05:48:07.269Z,100472.95
2019-04-11T05:50:43.289Z,100472.88
2019-04-11T05:53:13.578Z,100475.51
2019-04-11T05:55:47.487Z,100469.64
2019-04-11T05:58:19.650Z,100472.33
2019-04-11T06:00:57.820Z,100474.60
2019-04-11T06:03:30.265Z,100471.42
2019-04-11T06:06:12.943Z,100463.38
2019-04-11T06:08:44.500Z,100457.84
2019-04-11T06:11:22.141Z,100465.86
2019-04-11T06:14:11.186Z,100464.77
2019-04-11T06:16:50.348Z,100468.15
2019-04-11T06:19:20.667Z,100467.76
2019-04-11T06:21:58.058Z,100477.15
2019-04-11T06:24:38.570Z,100469.73
2019-04-11T06:27:18.349Z,100478.73
2019-04-11T06:29:52.885Z,100474.89
2019-04-11T06:32:43.695Z,100482.81
2019-04-11T06:35:18.551Z,100484.83
2019-04-11T06:38:10.084Z,100482.05
2019-04-11T06:40:44.107Z,100487.62
2019-04-11T06:43:26.347Z,100491.03
2019-04-11T06:45:59.418Z,100481.88
2019-04-11T06:48:33.773Z,100491.09
2019-04-11T06:51:09.847Z,100490.39
2019-04-11T06:53:44.080Z,100490.42
2019-04-11T06:56:20.941Z,100486.20
2019-04-11T06:58:56.862Z,100489.27
2019-04-11T07:01:30.166Z,100486.69
2019-04-11T07:04:03.337Z,100484.13
2019-04-11T07:06:37.683Z,100491.19
2019-04-11T07:09:30.830Z,100488.35
2019-04-11T07:12:10.539Z,100494.31
2019-04-11T07:14:55.815Z,100494.28
2019-04-11T07:17:45.900Z,100495.66
2019-04-11T07:20:20.695Z,100496.02
2019-04-11T07:23:07.984Z,100489.52
2019-04-11T07:25:58.092Z,100497.42
2019-04-11T07:28:41.628Z,100493.81
2019-04-11T07:31:15.014Z,100493.37
2019-04-11T07:34:04.635Z,100499.88
2019-04-11T07:36:58.366Z,100494.34
2019-04-11T07:39:33.613Z,100500.09
2019-04-11T07:42:13.677Z,100501.81
2019-04-11T07:44:59.806Z,100493.65
2019-04-11T07:47:41.558Z,100497.98
2019-04-11T07:50:15.618Z,100501.55
2019-04-11T07:53:01.373Z,100501.41
2019-04-11T07:55:34.634Z,100504.76
2019-04-11T07:58:23.960Z,100510.84
2019-04-11T08:01:14.757Z,100501.97
2019-04-11T08:03:49.839Z,100501.84
2019-04-11T08:06:52.063Z,100508.11
2019-04-11T08:09:28.982Z,100501.03
2019-04-11T08:12:02.662Z,100500.59
2019-04-11T08:14:42.512Z,100501.48
2019-04-11T08:17:27.903Z,100492.55
2019-04-11T08:19:57.451Z,100489.78
2019-04-11T08:22:41.324Z,100488.73
2019-04-11T08:25:31.556Z,100491.26
2019-04-11T08:28:07.575Z,100490.33
2019-04-11T08:30:46.887Z,100487.61
2019-04-11T08:33:20.027Z,100486.53
2019-04-11T08:35:55.132Z,100491.00
2019-04-11T08:38:29.159Z,100488.55
2019-04-11T08:41:19.877Z,100489.41
2019-04-11T08:43:55.242Z,100487.34
2019-04-11T08:49:09.827Z,100485.70
2019-04-11T08:51:43.254Z,100484.83
2019-04-11T08:54:33.345Z,100494.36
2019-04-11T08:57:07.530Z,100489.48
2019-04-11T08:59:44.192Z,100482.60
2019-04-11T09:02:18.546Z,100480.42
2019-04-11T09:05:04.013Z,100486.62
2019-04-11T09:07:32.119Z,100487.99
2019-04-11T09:10:24.149Z,100479.30
2019-04-11T09:13:02.817Z,100480.98
2019-04-11T09:15:53.508Z,100473.95
2019-04-11T09:18:32.363Z,100478.50
2019-04-11T09:21:07.728Z,100481.59
2019-04-11T09:23:39.917Z,100474.13
2019-04-11T09:26:18.072Z,100462.42
2019-04-11T09:28:51.487Z,100464.19
2019-04-11T09:31:42.159Z,100470.11
2019-04-11T09:34:35.682Z,100465.25
2019-04-11T09:37:09.437Z,100463.57
2019-04-11T09:39:47.663Z,100462.95
2019-04-11T09:42:28.403Z,100465.54
2019-04-11T09:45:03.578Z,100448.92
2019-04-11T09:47:51.849Z,100451.81
2019-04-11T09:50:28.734Z,100445.67
2019-04-11T09:53:01.576Z,100454.39
2019-04-11T09:55:51.102Z,100451.57
2019-04-11T09:58:28.794Z,100446.77
2019-04-11T10:01:18.200Z,100447.52
2019-04-11T10:03:52.903Z,100450.98
2019-04-11T10:06:36.843Z,100450.05
2019-04-11T10:09:13.423Z,100441.09
2019-04-11T10:12:04.502Z,100447.53
2019-04-11T10:14:37.701Z,100444.41
2019-04-11T10:17:33.689Z,100449.06
2019-04-11T10:20:06.652Z,100449.33
2019-04-11T10:22:58.338Z,100451.50
2019-04-11T10:25:32.478Z,100434.53
2019-04-11T10:28:27.159Z,100442.79
2019-04-11T10:31:04.285Z,100442.98
2019-04-11T10:33:50.060Z,100437.20
2019-04-11T10:36:31.870Z,100438.84
2019-04-11T10:39:11.323Z,100437.73
2019-04-11T10:41:50.542Z,100431.00
2019-04-11T10:44:25.733Z,100426.54
2019-04-11T10:47:02.086Z,100428.86
2019-04-11T10:49:42.085Z,100437.11
2019-04-11T10:52:24.691Z,100440.34
2019-04-11T10:55:05.169Z,100444.77
2019-04-11T10:57:42.346Z,100436.20
2019-04-11T11:00:33.549Z,100428.16
2019-04-11T11:03:18.197Z,100422.87
2019-04-11T11:05:55.516Z,100424.55
2019-04-11T11:08:39.845Z,100428.80
2019-04-11T11:11:24.101Z,100431.89
2019-04-11T11:14:02.539Z,100439.71
2019-04-11T11:16:47.036Z,100435.09
2019-04-11T11:19:50.081Z,100425.98
2019-04-11T11:22:08.743Z,100423.03
2019-04-11T11:25:00.205Z,100416.59
2019-04-11T11:27:33.290Z,100415.70
2019-04-11T11:30:25.223Z,100421.71
2019-04-11T11:32:58.151Z,100414.16
2019-04-11T11:35:50.438Z,100416.36
2019-04-11T11:38:30.827Z,100413.23
2019-04-11T11:41:07.990Z,100405.81
2019-04-11T11:43:41.238Z,100404.28
2019-04-11T11:46:30.078Z,100398.94
2019-04-11T11:49:03.086Z,100403.18
2019-04-11T11:51:37.367Z,100398.26
2019-04-11T11:54:13.881Z,100400.41
2019-04-11T11:56:48.937Z,100402.21
2019-04-11T11:59:27.035Z,100406.11
2019-04-11T12:02:00.664Z,100402.45
2019-04-11T12:04:42.213Z,100399.00
2019-04-11T12:07:16.704Z,100396.14
2019-04-11T12:09:58.645Z,100401.02
2019-04-11T12:12:38.019Z,100393.80
2019-04-11T12:15:22.350Z,100402.05
2019-04-11T12:17:58.128Z,100398.48
2019-04-11T12:20:49.263Z,100402.05
2019-04-11T12:23:48.651Z,100399.20
2019-04-11T12:26:25.749Z,100391.76
2019-04-11T12:29:30.803Z,100392.07
2019-04-11T12:32:20.099Z,100382.66
2019-04-11T12:35:03.974Z,100387.73
2019-04-11T12:37:38.224Z,100383.37
2019-04-11T12:40:47.384Z,100386.59
2019-04-11T12:43:21.745Z,100392.95
2019-04-11T12:46:03.919Z,100388.09
2019-04-11T12:48:55.026Z,100387.08
2019-04-11T12:51:45.773Z,100392.69
2019-04-11T12:54:39.659Z,100391.74
2019-04-11T12:57:35.968Z,100391.72
2019-04-11T13:00:10.881Z,100391.27
2019-04-11T13:03:01.679Z,100393.54
2019-04-11T13:05:52.194Z,100389.05
2019-04-11T13:08:38.862Z,100389.01
2019-04-11T13:11:12.104Z,100390.69
2019-04-11T13:13:45.186Z,100394.29
2019-04-11T13:16:19.954Z,100387.38
2019-04-11T13:19:15.201Z,100392.13
2019-04-11T13:21:51.847Z,100385.45
2019-04-11T13:24:31.580Z,100392.55
2019-04-11T13:27:15.949Z,100389.14
2019-04-11T13:30:07.576Z,100386.11
2019-04-11T13:32:41.940Z,100383.89
2019-04-11T13:35:15.824Z,100385.06
2019-04-11T13:38:05.035Z,100381.97
2019-04-11T13:40:44.495Z,100382.87
2019-04-11T13:43:31.245Z,100384.68
2019-04-11T13:46:15.672Z,100385.59
2019-04-11T13:48:48.328Z,100380.55
2019-04-11T13:51:22.938Z,100379.21
2019-04-11T13:54:12.746Z,100374.73
2019-04-11T13:57:02.878Z,100375.82
2019-04-11T13:59:38.482Z,100371.83
2019-04-11T14:02:15.387Z,100368.59
2019-04-11T14:05:04.746Z,100376.19
2019-04-11T14:07:36.239Z,100372.21
2019-04-11T14:10:09.743Z,100379.92
2019-04-11T14:12:42.661Z,100374.17
2019-04-11T14:15:22.832Z,100366.75
2019-04-11T14:17:56.040Z,100368.47
2019-04-11T14:20:31.955Z,100336.52
2019-04-11T14:23:13.810Z,100347.45
2019-04-11T14:25:58.794Z,100349.14
2019-04-11T14:28:36.575Z,100341.46
2019-04-11T14:31:09.994Z,100343.05
2019-04-11T14:33:44.452Z,100343.31
2019-04-11T14:36:34.024Z,100340.27
2019-04-11T14:39:08.708Z,100339.17
2019-04-11T14:41:59.840Z,100339.98
2019-04-11T14:44:33.449Z,100332.41
2019-04-11T14:47:09.733Z,100332.41
2019-04-11T14:49:41.924Z,100338.17
2019-04-11T14:52:17.682Z,100330.23
2019-04-11T14:54:49.978Z,100332.70
2019-04-11T14:57:26.196Z,100332.53
2019-04-11T15:00:00.754Z,100333.27
2019-04-11T15:02:52.205Z,100329.65
2019-04-11T15:05:44.889Z,100323.50
2019-04-11T15:08:22.689Z,100329.48
2019-04-11T15:11:14.127Z,100330.19
2019-04-11T15:13:48.807Z,100330.27
2019-04-11T15:16:38.145Z,100336.88
2019-04-11T15:19:11.444Z,100328.09
2019-04-11T15:21:53.472Z,100330.22
2019-04-11T15:24:26.519Z,100333.28
2019-04-11T15:27:08.657Z,100330.69
2019-04-11T15:29:40.189Z,100324.34
2019-04-11T15:32:15.683Z,100330.94
2019-04-11T15:34:48.731Z,100323.05
2019-04-11T15:37:22.297Z,100325.24
2019-04-11T15:39:59.763Z,100328.79
2019-04-11T15:42:52.467Z,100328.47
2019-04-11T15:45:31.688Z,100323.19
2019-04-11T15:48:07.604Z,100321.70
2019-04-11T15:51:06.490Z,100324.39
2019-04-11T15:53:36.976Z,100328.87
2019-04-11T15:56:28.737Z,100334.88
2019-04-11T15:59:13.203Z,100326.20
2019-04-11T16:02:04.391Z,100324.34
2019-04-11T16:04:37.982Z,100329.51
2019-04-11T16:07:14.547Z,100320.45
2019-04-11T16:09:50.595Z,100330.10
2019-04-11T16:12:30.192Z,100329.42
2019-04-11T16:15:09.400Z,100339.87
2019-04-11T16:17:54.444Z,100337.13
2019-04-11T16:20:26.554Z,100333.30
2019-04-11T16:23:15.950Z,100340.80
2019-04-11T16:25:52.484Z,100335.64
2019-04-11T16:28:42.193Z,100343.41
2019-04-11T16:31:13.953Z,100348.24
2019-04-11T16:33:54.012Z,100355.21
2019-04-11T16:36:28.970Z,100357.40
2019-04-11T16:39:02.340Z,100362.17
2019-04-11T16:41:56.722Z,100362.17
2019-04-11T16:44:32.530Z,100362.73
2019-04-11T16:47:08.240Z,100366.54
2019-04-11T16:49:38.827Z,100370.05
2019-04-11T16:52:14.193Z,100372.72
2019-04-11T16:54:48.215Z,100381.19
2019-04-11T16:57:24.530Z,100384.96
2019-04-11T16:59:58.395Z,100388.64
2019-04-11T17:02:29.882Z,100395.48
2019-04-11T17:05:03.789Z,100400.25
2019-04-11T17:07:43.528Z,100399.50
2019-04-11T17:10:16.773Z,100403.55
2019-04-11T17:12:48.700Z,100404.69
2019-04-11T17:15:20.780Z,100406.70
2019-04-11T17:17:53.679Z,100409.81
2019-04-11T17:20:26.850Z,100409.02
2019-04-11T17:22:58.538Z,100418.46
2019-04-11T17:25:32.931Z,100423.47
2019-04-11T17:28:05.554Z,100425.70
2019-04-11T17:30:37.437Z,100426.15
2019-04-11T17:33:10.387Z,100435.51
2019-04-11T17:35:42.532Z,100436.55
2019-04-11T17:38:14.242Z,100435.16
2019-04-11T17:40:46.388Z,100438.64
2019-04-11T17:43:18.289Z,100436.54
2019-04-11T17:45:51.442Z,100439.11
2019-04-11T17:48:23.389Z,100432.92
2019-04-11T17:50:55.155Z,100435.72
2019-04-11T17:53:27.272Z,100435.95
2019-04-11T17:56:00.907Z,100435.71
2019-04-11T17:58:34.492Z,100430.27
2019-04-11T18:01:07.412Z,100427.98
2019-04-11T18:03:43.882Z,100431.94
2019-04-11T18:06:17.804Z,100429.98
2019-04-11T18:08:53.030Z,100426.00
2019-04-11T18:11:29.932Z,100433.36
2019-04-11T18:14:02.549Z,100435.35
2019-04-11T18:16:34.349Z,100435.02
2019-04-11T18:19:06.689Z,100442.27
2019-04-11T18:21:39.444Z,100436.92
2019-04-11T18:24:11.385Z,100427.33
2019-04-11T18:26:43.130Z,100436.89
2019-04-11T18:29:14.947Z,100435.75
2019-04-11T18:31:50.433Z,100433.75
2019-04-11T18:34:24.644Z,100435.81
2019-04-11T18:36:57.273Z,100444.88
2019-04-11T18:39:28.948Z,100439.34
2019-04-11T18:42:01.143Z,100379.57
2019-04-11T18:44:32.721Z,100439.12
2019-04-11T18:47:09.733Z,100442.62
2019-04-11T18:49:43.160Z,100440.67
2019-04-11T18:52:19.952Z,100443.38
2019-04-11T18:54:50.679Z,100451.30
2019-04-11T18:57:23.397Z,100439.75
2019-04-11T18:59:55.412Z,100442.81
2019-04-11T19:02:27.071Z,100438.30
2019-04-11T19:04:58.928Z,100440.39
2019-04-11T19:07:31.051Z,100442.64
2019-04-11T19:10:03.034Z,100445.13
2019-04-11T19:12:36.420Z,100441.95
2019-04-11T19:15:08.802Z,100437.63
2019-04-11T19:17:40.422Z,100436.69
2019-04-11T19:20:12.770Z,100435.54
2019-04-11T19:22:44.996Z,100431.05
2019-04-11T19:25:19.903Z,100436.77
2019-04-11T19:27:54.257Z,100433.35
2019-04-11T19:30:26.972Z,100432.47
2019-04-11T19:32:58.730Z,100434.05
2019-04-11T19:35:33.871Z,100430.52
2019-04-11T19:38:07.044Z,100433.20
2019-04-11T19:40:38.837Z,100430.70
2019-04-11T19:43:10.682Z,100428.38
2019-04-11T19:45:42.394Z,100432.93
2019-04-11T19:48:14.196Z,100428.25
2019-04-11T19:50:45.870Z,100428.06
2019-04-11T19:53:18.325Z,100428.91
2019-04-11T19:55:52.435Z,100431.25
2019-04-11T19:58:26.965Z,100425.38
2019-04-11T20:00:58.636Z,100422.70
2019-04-11T20:03:31.797Z,100426.38
2019-04-11T20:06:07.233Z,100422.39
2019-04-11T20:08:40.278Z,100416.52
2019-04-11T20:11:12.700Z,100421.54
2019-04-11T20:13:44.667Z,100417.36
2019-04-11T20:16:16.394Z,100416.55
2019-04-11T20:18:51.377Z,100408.31
2019-04-11T20:21:22.472Z,100412.34
2019-04-11T20:23:55.221Z,100414.17
2019-04-11T20:26:28.728Z,100405.64
2019-04-11T20:29:04.352Z,100415.36
2019-04-11T20:31:37.091Z,100413.70
2019-04-11T20:34:08.919Z,100410.02
2019-04-11T20:36:41.235Z,100411.02
2019-04-11T20:39:15.235Z,100401.30
2019-04-11T20:41:46.847Z,100399.94
2019-04-11T20:44:18.471Z,100403.61
2019-04-11T20:46:50.174Z,100397.72
2019-04-11T20:49:23.723Z,100400.40
2019-04-11T20:51:55.819Z,100401.27
2019-04-11T20:54:28.986Z,100412.17
2019-04-11T20:57:00.737Z,100406.52
2019-04-11T20:59:34.778Z,100406.34
2019-04-11T21:02:07.121Z,100407.36
2019-04-11T21:04:38.807Z,100404.85
2019-04-11T21:07:10.444Z,100402.00
2019-04-11T21:09:42.075Z,100401.95
2019-04-11T21:12:13.771Z,100400.61
2019-04-11T21:14:46.539Z,100401.09
2019-04-11T21:17:18.070Z,100403.94
2019-04-11T21:19:50.994Z,100399.91
2019-04-11T21:22:24.199Z,100403.92
2019-04-11T21:24:56.488Z,100400.28
2019-04-11T21:27:28.896Z,100391.90
2019-04-11T21:30:01.094Z,100392.59
2019-04-11T21:32:34.122Z,100392.91
2019-04-11T21:35:06.908Z,100402.80
2019-04-11T21:37:38.304Z,100403.11
2019-04-11T21:40:10.364Z,100407.53
2019-04-11T21:42:41.910Z,100405.86
2019-04-11T21:45:13.590Z,100401.97
2019-04-11T21:47:45.288Z,100411.36
2019-04-11T21:50:17.947Z,100408.50
2019-04-11T21:52:49.705Z,100413.34
2019-04-11T21:55:21.502Z,100419.87
2019-04-11T21:57:53.163Z,100416.53
2019-04-11T22:00:32.969Z,100409.50
2019-04-11T22:03:06.723Z,100425.92
2019-04-11T22:05:38.614Z,100420.91
2019-04-11T22:08:10.166Z,100418.91
2019-04-11T22:10:42.009Z,100416.20
2019-04-11T22:13:13.693Z,100411.16
2019-04-11T22:15:45.527Z,100419.87
2019-04-11T22:18:17.087Z,100423.89
2019-04-11T22:20:48.859Z,100425.88
2019-04-11T22:23:20.608Z,100427.48
2019-04-11T22:25:52.305Z,100429.91
2019-04-11T22:28:36.893Z,100436.11
2019-04-11T22:31:08.684Z,100430.13
2019-04-11T22:33:44.918Z,100431.11
2019-04-11T22:36:17.609Z,100419.71
2019-04-11T22:38:49.385Z,100438.40
2019-04-11T22:41:22.207Z,100432.30
2019-04-11T22:43:53.866Z,100433.25
2019-04-11T22:46:25.541Z,100430.55
2019-04-11T22:48:57.320Z,100432.09
2019-04-11T22:51:29.103Z,100434.42
2019-04-11T22:54:01.674Z,100436.81
2019-04-11T22:56:33.458Z,100433.12
2019-04-11T22:59:05.086Z,100435.51
2019-04-11T23:01:37.762Z,100438.18
2019-04-11T23:04:09.380Z,100444.06
2019-04-11T23:06:41.224Z,100437.97
2019-04-11T23:09:12.956Z,100436.14
2019-04-11T23:11:45.325Z,100434.52
2019-04-11T23:14:16.987Z,100440.16
2019-04-11T23:16:48.637Z,100440.56
2019-04-11T23:19:20.177Z,100438.83
2019-04-11T23:21:51.998Z,100437.31
2019-04-11T23:24:23.476Z,100436.11
2019-04-11T23:26:55.077Z,100433.70
2019-04-11T23:29:26.718Z,100435.89
2019-04-11T23:31:58.501Z,100434.73
2019-04-11T23:34:30.067Z,100435.05
2019-04-11T23:37:01.607Z,100439.41
2019-04-11T23:39:33.119Z,100440.73
2019-04-11T23:42:04.726Z,100441.66
2019-04-11T23:44:36.876Z,100439.62
2019-04-11T23:47:08.642Z,100448.75
2019-04-11T23:49:40.340Z,100446.66
2019-04-11T23:52:14.254Z,100441.86
2019-04-11T23:54:45.990Z,100445.91
2019-04-11T23:57:18.603Z,100445.55
2019-04-11T23:59:50.417Z,100449.60
